Balikesir, Turkey
Current Conditions -  °F | °C
As of 3:50 PM on Thursday 30 Oct 2014 (Local Time) from LTBF Reporting Station
Broken Clouds Broken Clouds  
Wind Chill: 59°   Ceiling: 10000
Heat Index: 59°   Visibility: 6mi
Dew Point: 52°   Wind: 12mph
Humidity: 77%   Direction: 350°N
Pressure: 30.03"   Gusts: NA
Location:  39.65°N, 27.88°E
Report Text: LTBF 301250Z 35010KT 310V020 9999 SCT015 SCT035 BKN100 15/11 Q1017 NOSIG
Loading
Personal Weather Stations






























Interactive Weather Map New forecast layout! Learn more

10-Day Weather Forecast

Advertisements
Track Severe Weather on mobile